sensor_id;sensor_type;location;lat;lon;timestamp;temperature;humidity
45983;DHT22;31711;47.158;7.346;2023-06-26T10:11:18;30.00;96.70
45983;DHT22;31711;47.158;7.346;2023-06-26T10:13:45;30.00;96.60
45983;DHT22;31711;47.158;7.346;2023-06-26T10:16:18;30.30;96.20
45983;DHT22;31711;47.158;7.346;2023-06-26T10:18:48;30.50;95.70
45983;DHT22;31711;47.158;7.346;2023-06-26T10:21:16;30.40;94.80
45983;DHT22;31711;47.158;7.346;2023-06-26T10:23:44;30.40;95.10
45983;DHT22;31711;47.158;7.346;2023-06-26T10:26:11;30.20;94.30
45983;DHT22;31711;47.158;7.346;2023-06-26T10:28:38;29.60;94.90
45983;DHT22;31711;47.158;7.346;2023-06-26T10:31:07;29.50;95.70
45983;DHT22;31711;47.158;7.346;2023-06-26T10:33:34;29.30;96.30
45983;DHT22;31711;47.158;7.346;2023-06-26T10:36:21;29.40;95.80
45983;DHT22;31711;47.158;7.346;2023-06-26T10:38:55;29.00;96.00
45983;DHT22;31711;47.158;7.346;2023-06-26T10:41:22;28.70;96.10
45983;DHT22;31711;47.158;7.346;2023-06-26T10:44:11;28.90;96.50
45983;DHT22;31711;47.158;7.346;2023-06-26T10:46:52;29.00;95.90
45983;DHT22;31711;47.158;7.346;2023-06-26T10:49:25;28.90;95.80
45983;DHT22;31711;47.158;7.346;2023-06-26T10:51:52;28.80;96.10
45983;DHT22;31711;47.158;7.346;2023-06-26T10:54:19;28.60;96.30
45983;DHT22;31711;47.158;7.346;2023-06-26T10:56:47;28.30;97.10
45983;DHT22;31711;47.158;7.346;2023-06-26T10:59:21;28.50;97.20
45983;DHT22;31711;47.158;7.346;2023-06-26T11:02:05;28.40;97.30
45983;DHT22;31711;47.158;7.346;2023-06-26T11:07:22;28.70;97.30
45983;DHT22;31711;47.158;7.346;2023-06-26T11:12:40;29.10;97.00
45983;DHT22;31711;47.158;7.346;2023-06-26T11:15:15;29.30;97.10
45983;DHT22;31711;47.158;7.346;2023-06-26T11:17:42;28.50;96.70
45983;DHT22;31711;47.158;7.346;2023-06-26T11:20:10;28.50;97.00
45983;DHT22;31711;47.158;7.346;2023-06-26T11:22:38;28.20;97.10
45983;DHT22;31711;47.158;7.346;2023-06-26T11:25:05;28.10;97.60
45983;DHT22;31711;47.158;7.346;2023-06-26T11:27:52;28.60;97.80
45983;DHT22;31711;47.158;7.346;2023-06-26T11:30:25;28.80;97.30
45983;DHT22;31711;47.158;7.346;2023-06-26T11:32:52;28.90;96.40
45983;DHT22;31711;47.158;7.346;2023-06-26T11:35:24;28.90;96.80
45983;DHT22;31711;47.158;7.346;2023-06-26T11:37:57;29.00;96.80
45983;DHT22;31711;47.158;7.346;2023-06-26T11:40:26;28.70;96.70
45983;DHT22;31711;47.158;7.346;2023-06-26T11:42:53;28.80;96.60
45983;DHT22;31711;47.158;7.346;2023-06-26T11:45:20;29.00;96.50
45983;DHT22;31711;47.158;7.346;2023-06-26T11:47:46;28.90;95.60
45983;DHT22;31711;47.158;7.346;2023-06-26T11:50:18;29.00;96.60
45983;DHT22;31711;47.158;7.346;2023-06-26T11:52:44;29.40;96.60
45983;DHT22;31711;47.158;7.346;2023-06-26T11:55:10;29.20;95.30
45983;DHT22;31711;47.158;7.346;2023-06-26T11:57:37;29.10;95.40
45983;DHT22;31711;47.158;7.346;2023-06-26T12:00:16;29.20;95.20
45983;DHT22;31711;47.158;7.346;2023-06-26T12:02:46;29.30;95.80
45983;DHT22;31711;47.158;7.346;2023-06-26T12:05:19;29.30;95.70
45983;DHT22;31711;47.158;7.346;2023-06-26T12:07:49;29.30;94.70
45983;DHT22;31711;47.158;7.346;2023-06-26T12:10:16;28.80;94.60
45983;DHT22;31711;47.158;7.346;2023-06-26T12:12:43;29.10;95.30
45983;DHT22;31711;47.158;7.346;2023-06-26T12:15:14;29.20;94.40
45983;DHT22;31711;47.158;7.346;2023-06-26T12:17:41;29.60;94.40
45983;DHT22;31711;47.158;7.346;2023-06-26T12:20:18;29.70;93.90
45983;DHT22;31711;47.158;7.346;2023-06-26T12:22:48;29.80;92.70
45983;DHT22;31711;47.158;7.346;2023-06-26T12:25:15;29.90;93.70
45983;DHT22;31711;47.158;7.346;2023-06-26T12:27:44;30.30;93.10
45983;DHT22;31711;47.158;7.346;2023-06-26T12:30:11;30.20;92.90
45983;DHT22;31711;47.158;7.346;2023-06-26T12:32:38;30.40;92.70
45983;DHT22;31711;47.158;7.346;2023-06-26T12:35:05;30.20;91.60
45983;DHT22;31711;47.158;7.346;2023-06-26T12:37:36;30.20;93.30
45983;DHT22;31711;47.158;7.346;2023-06-26T12:40:04;30.50;92.70
45983;DHT22;31711;47.158;7.346;2023-06-26T12:42:33;30.10;92.00
45983;DHT22;31711;47.158;7.346;2023-06-26T12:44:59;30.10;92.40
45983;DHT22;31711;47.158;7.346;2023-06-26T12:47:27;29.90;92.60
45983;DHT22;31711;47.158;7.346;2023-06-26T12:49:53;29.30;91.80
45983;DHT22;31711;47.158;7.346;2023-06-26T12:52:21;29.60;92.50
45983;DHT22;31711;47.158;7.346;2023-06-26T12:54:52;29.60;92.90
45983;DHT22;31711;47.158;7.346;2023-06-26T12:57:18;29.80;92.30
45983;DHT22;31711;47.158;7.346;2023-06-26T12:59:44;30.00;91.90
45983;DHT22;31711;47.158;7.346;2023-06-26T13:02:10;29.80;92.50
45983;DHT22;31711;47.158;7.346;2023-06-26T13:04:37;29.90;93.60
45983;DHT22;31711;47.158;7.346;2023-06-26T13:07:07;30.10;93.10
45983;DHT22;31711;47.158;7.346;2023-06-26T13:09:34;30.00;92.30
45983;DHT22;31711;47.158;7.346;2023-06-26T13:12:01;30.10;93.60
45983;DHT22;31711;47.158;7.346;2023-06-26T13:14:30;30.10;91.80
45983;DHT22;31711;47.158;7.346;2023-06-26T13:19:22;30.10;91.40
45983;DHT22;31711;47.158;7.346;2023-06-26T13:21:48;30.40;92.10
45983;DHT22;31711;47.158;7.346;2023-06-26T13:24:14;30.40;91.40
45983;DHT22;31711;47.158;7.346;2023-06-26T13:26:41;30.40;91.10
45983;DHT22;31711;47.158;7.346;2023-06-26T13:29:07;30.40;90.90
45983;DHT22;31711;47.158;7.346;2023-06-26T13:31:33;30.50;91.30
45983;DHT22;31711;47.158;7.346;2023-06-26T13:34:00;31.00;91.80
45983;DHT22;31711;47.158;7.346;2023-06-26T13:36:26;30.70;91.10
45983;DHT22;31711;47.158;7.346;2023-06-26T13:38:52;30.70;91.40
45983;DHT22;31711;47.158;7.346;2023-06-26T13:41:24;30.70;91.50
45983;DHT22;31711;47.158;7.346;2023-06-26T13:43:51;30.60;91.50
45983;DHT22;31711;47.158;7.346;2023-06-26T13:46:17;31.00;91.20
45983;DHT22;31711;47.158;7.346;2023-06-26T13:48:46;30.90;90.10
45983;DHT22;31711;47.158;7.346;2023-06-26T13:51:12;31.10;91.30
45983;DHT22;31711;47.158;7.346;2023-06-26T13:53:39;30.90;90.60
45983;DHT22;31711;47.158;7.346;2023-06-26T13:58:31;30.90;91.00
45983;DHT22;31711;47.158;7.346;2023-06-26T14:00:59;30.70;90.90
45983;DHT22;31711;47.158;7.346;2023-06-26T14:03:26;30.60;91.30
45983;DHT22;31711;47.158;7.346;2023-06-26T14:05:54;30.40;91.40
45983;DHT22;31711;47.158;7.346;2023-06-26T14:08:19;30.20;91.30
45983;DHT22;31711;47.158;7.346;2023-06-26T14:10:45;30.20;91.70
45983;DHT22;31711;47.158;7.346;2023-06-26T14:13:12;29.70;91.80
45983;DHT22;31711;47.158;7.346;2023-06-26T14:15:41;29.90;91.70
45983;DHT22;31711;47.158;7.346;2023-06-26T14:18:07;29.50;91.80
45983;DHT22;31711;47.158;7.346;2023-06-26T14:20:33;29.50;92.60
45983;DHT22;31711;47.158;7.346;2023-06-26T14:23:01;29.80;92.60
45983;DHT22;31711;47.158;7.346;2023-06-26T14:25:28;29.80;92.20
45983;DHT22;31711;47.158;7.346;2023-06-26T14:27:57;29.70;91.60
45983;DHT22;31711;47.158;7.346;2023-06-26T14:30:23;29.90;92.40
45983;DHT22;31711;47.158;7.346;2023-06-26T14:32:49;30.10;91.90
45983;DHT22;31711;47.158;7.346;2023-06-26T14:35:16;30.00;92.00
45983;DHT22;31711;47.158;7.346;2023-06-26T14:37:42;29.70;91.70
45983;DHT22;31711;47.158;7.346;2023-06-26T14:40:10;29.50;92.00
45983;DHT22;31711;47.158;7.346;2023-06-26T14:42:36;29.50;91.80
45983;DHT22;31711;47.158;7.346;2023-06-26T14:45:02;29.70;91.80
45983;DHT22;31711;47.158;7.346;2023-06-26T14:47:29;29.80;92.20
45983;DHT22;31711;47.158;7.346;2023-06-26T14:49:55;29.50;90.80
45983;DHT22;31711;47.158;7.346;2023-06-26T14:52:21;29.50;91.70
45983;DHT22;31711;47.158;7.346;2023-06-26T14:54:46;29.40;91.60
45983;DHT22;31711;47.158;7.346;2023-06-26T14:57:12;29.50;92.00
45983;DHT22;31711;47.158;7.346;2023-06-26T14:59:38;29.50;91.90
45983;DHT22;31711;47.158;7.346;2023-06-26T15:02:04;29.40;91.90
45983;DHT22;31711;47.158;7.346;2023-06-26T15:04:31;29.20;91.30
45983;DHT22;31711;47.158;7.346;2023-06-26T15:06:58;29.20;92.00
45983;DHT22;31711;47.158;7.346;2023-06-26T15:09:24;29.30;91.70
45983;DHT22;31711;47.158;7.346;2023-06-26T15:11:50;29.50;91.10
45983;DHT22;31711;47.158;7.346;2023-06-26T15:14:16;29.50;91.60
45983;DHT22;31711;47.158;7.346;2023-06-26T15:16:42;29.60;91.20
45983;DHT22;31711;47.158;7.346;2023-06-26T15:19:08;29.20;91.60
45983;DHT22;31711;47.158;7.346;2023-06-26T15:21:34;29.10;91.70
45983;DHT22;31711;47.158;7.346;2023-06-26T15:24:00;28.90;91.20
45983;DHT22;31711;47.158;7.346;2023-06-26T15:26:27;28.90;91.70
45983;DHT22;31711;47.158;7.346;2023-06-26T15:28:53;28.60;91.80
45983;DHT22;31711;47.158;7.346;2023-06-26T15:31:20;28.80;92.20
45983;DHT22;31711;47.158;7.346;2023-06-26T15:33:46;28.60;91.70
45983;DHT22;31711;47.158;7.346;2023-06-26T15:36:12;28.40;91.80
45983;DHT22;31711;47.158;7.346;2023-06-26T15:38:38;28.30;91.60
45983;DHT22;31711;47.158;7.346;2023-06-26T15:41:05;28.20;91.50
45983;DHT22;31711;47.158;7.346;2023-06-26T15:43:32;28.10;92.00
45983;DHT22;31711;47.158;7.346;2023-06-26T15:45:59;28.10;91.50
45983;DHT22;31711;47.158;7.346;2023-06-26T15:48:25;28.10;91.70
45983;DHT22;31711;47.158;7.346;2023-06-26T15:50:51;28.10;92.00
45983;DHT22;31711;47.158;7.346;2023-06-26T15:53:17;28.20;92.00
45983;DHT22;31711;47.158;7.346;2023-06-26T15:55:43;28.10;91.70
45983;DHT22;31711;47.158;7.346;2023-06-26T15:58:09;28.00;91.20
45983;DHT22;31711;47.158;7.346;2023-06-26T16:00:35;27.80;91.30
45983;DHT22;31711;47.158;7.346;2023-06-26T16:03:01;27.90;91.40
45983;DHT22;31711;47.158;7.346;2023-06-26T16:05:27;28.00;91.60
45983;DHT22;31711;47.158;7.346;2023-06-26T16:07:53;27.90;91.70
45983;DHT22;31711;47.158;7.346;2023-06-26T16:10:19;27.60;91.30
45983;DHT22;31711;47.158;7.346;2023-06-26T16:12:45;27.60;91.70
45983;DHT22;31711;47.158;7.346;2023-06-26T16:15:11;27.60;91.40
45983;DHT22;31711;47.158;7.346;2023-06-26T16:17:37;27.40;91.60
45983;DHT22;31711;47.158;7.346;2023-06-26T16:20:04;27.40;91.60
45983;DHT22;31711;47.158;7.346;2023-06-26T16:22:30;27.20;91.70
45983;DHT22;31711;47.158;7.346;2023-06-26T16:24:56;27.10;91.80
45983;DHT22;31711;47.158;7.346;2023-06-26T16:27:22;27.20;92.20
45983;DHT22;31711;47.158;7.346;2023-06-26T16:29:48;27.10;91.90
45983;DHT22;31711;47.158;7.346;2023-06-26T16:32:14;27.00;91.90
45983;DHT22;31711;47.158;7.346;2023-06-26T16:34:40;27.00;92.10
45983;DHT22;31711;47.158;7.346;2023-06-26T16:37:06;26.90;91.90
45983;DHT22;31711;47.158;7.346;2023-06-26T16:39:35;26.90;92.00
45983;DHT22;31711;47.158;7.346;2023-06-26T16:42:01;26.80;91.80
45983;DHT22;31711;47.158;7.346;2023-06-26T16:44:27;26.70;92.20
45983;DHT22;31711;47.158;7.346;2023-06-26T16:46:55;26.80;92.00
45983;DHT22;31711;47.158;7.346;2023-06-26T16:49:26;26.80;91.80
45983;DHT22;31711;47.158;7.346;2023-06-26T16:51:52;26.80;91.90
45983;DHT22;31711;47.158;7.346;2023-06-26T16:54:22;26.70;91.80
45983;DHT22;31711;47.158;7.346;2023-06-26T16:56:53;26.70;91.70
45983;DHT22;31711;47.158;7.346;2023-06-26T16:59:19;26.60;91.60
45983;DHT22;31711;47.158;7.346;2023-06-26T17:01:46;26.50;91.40
45983;DHT22;31711;47.158;7.346;2023-06-26T17:04:12;26.50;91.60
45983;DHT22;31711;47.158;7.346;2023-06-26T17:06:38;26.50;91.70
45983;DHT22;31711;47.158;7.346;2023-06-26T17:09:04;26.30;91.60
45983;DHT22;31711;47.158;7.346;2023-06-26T17:11:30;26.30;91.70
45983;DHT22;31711;47.158;7.346;2023-06-26T17:13:56;26.30;91.40
45983;DHT22;31711;47.158;7.346;2023-06-26T17:16:22;26.30;91.30
45983;DHT22;31711;47.158;7.346;2023-06-26T17:18:48;26.20;91.40
45983;DHT22;31711;47.158;7.346;2023-06-26T17:21:14;26.10;91.50
45983;DHT22;31711;47.158;7.346;2023-06-26T17:23:40;26.00;91.30
45983;DHT22;31711;47.158;7.346;2023-06-26T17:26:06;26.00;91.40
45983;DHT22;31711;47.158;7.346;2023-06-26T17:28:32;26.00;91.50
45983;DHT22;31711;47.158;7.346;2023-06-26T17:30:58;25.90;91.10
45983;DHT22;31711;47.158;7.346;2023-06-26T17:33:24;25.80;91.30
45983;DHT22;31711;47.158;7.346;2023-06-26T17:35:50;25.80;91.70
45983;DHT22;31711;47.158;7.346;2023-06-26T17:38:16;25.70;91.00
45983;DHT22;31711;47.158;7.346;2023-06-26T17:40:42;25.70;91.10
45983;DHT22;31711;47.158;7.346;2023-06-26T17:43:08;25.70;91.60
45983;DHT22;31711;47.158;7.346;2023-06-26T17:45:34;25.50;91.50
45983;DHT22;31711;47.158;7.346;2023-06-26T17:48:00;25.50;91.60
45983;DHT22;31711;47.158;7.346;2023-06-26T17:50:26;25.50;92.10
45983;DHT22;31711;47.158;7.346;2023-06-26T17:52:52;25.40;91.80
45983;DHT22;31711;47.158;7.346;2023-06-26T17:55:18;25.40;91.80
45983;DHT22;31711;47.158;7.346;2023-06-26T17:57:44;25.30;91.60
45983;DHT22;31711;47.158;7.346;2023-06-26T18:00:11;25.20;91.60
45983;DHT22;31711;47.158;7.346;2023-06-26T18:02:37;25.20;91.50
45983;DHT22;31711;47.158;7.346;2023-06-26T18:05:04;25.20;91.80
45983;DHT22;31711;47.158;7.346;2023-06-26T18:07:30;25.20;91.70
45983;DHT22;31711;47.158;7.346;2023-06-26T18:09:56;25.10;91.70
45983;DHT22;31711;47.158;7.346;2023-06-26T18:12:22;25.10;91.70
45983;DHT22;31711;47.158;7.346;2023-06-26T18:14:48;25.10;91.80
45983;DHT22;31711;47.158;7.346;2023-06-26T18:17:14;25.10;91.90
45983;DHT22;31711;47.158;7.346;2023-06-26T18:19:41;25.00;91.60
45983;DHT22;31711;47.158;7.346;2023-06-26T18:22:07;25.00;91.80
45983;DHT22;31711;47.158;7.346;2023-06-26T18:24:33;24.90;91.90
45983;DHT22;31711;47.158;7.346;2023-06-26T18:26:59;24.90;92.10
45983;DHT22;31711;47.158;7.346;2023-06-26T18:29:25;24.80;92.20
45983;DHT22;31711;47.158;7.346;2023-06-26T18:31:51;24.80;92.30
45983;DHT22;31711;47.158;7.346;2023-06-26T18:34:17;24.80;92.40
45983;DHT22;31711;47.158;7.346;2023-06-26T18:36:43;24.60;92.50
45983;DHT22;31711;47.158;7.346;2023-06-26T18:39:09;24.50;92.80
45983;DHT22;31711;47.158;7.346;2023-06-26T18:41:37;24.40;93.00
45983;DHT22;31711;47.158;7.346;2023-06-26T18:44:03;24.30;93.00
45983;DHT22;31711;47.158;7.346;2023-06-26T18:46:32;24.30;93.20
45983;DHT22;31711;47.158;7.346;2023-06-26T18:49:04;24.30;93.30
45983;DHT22;31711;47.158;7.346;2023-06-26T18:51:31;24.10;93.20
45983;DHT22;31711;47.158;7.346;2023-06-26T18:53:57;24.00;93.40
45983;DHT22;31711;47.158;7.346;2023-06-26T18:56:28;24.00;93.50
45983;DHT22;31711;47.158;7.346;2023-06-26T18:58:54;23.90;93.60
45983;DHT22;31711;47.158;7.346;2023-06-26T19:01:20;23.80;93.70
45983;DHT22;31711;47.158;7.346;2023-06-26T19:03:46;23.80;93.90
45983;DHT22;31711;47.158;7.346;2023-06-26T19:06:14;23.70;93.70
45983;DHT22;31711;47.158;7.346;2023-06-26T19:08:40;23.60;94.00
45983;DHT22;31711;47.158;7.346;2023-06-26T19:11:07;23.60;93.80
45983;DHT22;31711;47.158;7.346;2023-06-26T19:13:33;23.50;93.90
45983;DHT22;31711;47.158;7.346;2023-06-26T19:15:59;23.50;94.00
45983;DHT22;31711;47.158;7.346;2023-06-26T19:18:27;23.40;94.10
45983;DHT22;31711;47.158;7.346;2023-06-26T19:20:53;23.30;94.10
45983;DHT22;31711;47.158;7.346;2023-06-26T19:23:19;23.30;94.30
45983;DHT22;31711;47.158;7.346;2023-06-26T19:25:46;23.30;94.20
45983;DHT22;31711;47.158;7.346;2023-06-26T19:28:12;23.20;94.40
45983;DHT22;31711;47.158;7.346;2023-06-26T19:30:39;23.20;94.40
45983;DHT22;31711;47.158;7.346;2023-06-26T19:33:05;23.20;94.30
45983;DHT22;31711;47.158;7.346;2023-06-26T19:35:31;23.10;94.40
45983;DHT22;31711;47.158;7.346;2023-06-26T19:37:57;23.10;94.30
45983;DHT22;31711;47.158;7.346;2023-06-26T19:40:25;23.10;94.40
45983;DHT22;31711;47.158;7.346;2023-06-26T19:42:51;23.00;94.40
45983;DHT22;31711;47.158;7.346;2023-06-26T19:45:17;23.00;94.50
45983;DHT22;31711;47.158;7.346;2023-06-26T19:47:43;22.90;94.50
45983;DHT22;31711;47.158;7.346;2023-06-26T19:50:09;22.90;95.00
45983;DHT22;31711;47.158;7.346;2023-06-26T19:52:38;22.80;94.40
45983;DHT22;31711;47.158;7.346;2023-06-26T19:55:05;22.80;94.50
45983;DHT22;31711;47.158;7.346;2023-06-26T19:57:31;22.70;94.70
45983;DHT22;31711;47.158;7.346;2023-06-26T19:59:57;22.60;94.60
45983;DHT22;31711;47.158;7.346;2023-06-26T20:02:23;22.60;94.60
45983;DHT22;31711;47.158;7.346;2023-06-26T20:04:49;22.60;94.40
45983;DHT22;31711;47.158;7.346;2023-06-26T20:07:15;22.60;94.50
45983;DHT22;31711;47.158;7.346;2023-06-26T20:09:41;22.60;94.80
45983;DHT22;31711;47.158;7.346;2023-06-26T20:12:07;22.50;94.40
45983;DHT22;31711;47.158;7.346;2023-06-26T20:14:33;22.40;94.60
45983;DHT22;31711;47.158;7.346;2023-06-26T20:16:59;22.40;94.70
45983;DHT22;31711;47.158;7.346;2023-06-26T20:19:25;22.40;94.30
45983;DHT22;31711;47.158;7.346;2023-06-26T20:21:53;22.40;94.50
45983;DHT22;31711;47.158;7.346;2023-06-26T20:24:19;22.20;94.50
45983;DHT22;31711;47.158;7.346;2023-06-26T20:26:45;22.20;94.40
45983;DHT22;31711;47.158;7.346;2023-06-26T20:29:11;22.20;94.60
45983;DHT22;31711;47.158;7.346;2023-06-26T20:31:41;22.20;94.50
45983;DHT22;31711;47.158;7.346;2023-06-26T20:34:07;22.20;94.60
45983;DHT22;31711;47.158;7.346;2023-06-26T20:36:33;22.20;94.50
45983;DHT22;31711;47.158;7.346;2023-06-26T20:38:59;22.20;94.40
45983;DHT22;31711;47.158;7.346;2023-06-26T20:41:25;22.20;94.60
45983;DHT22;31711;47.158;7.346;2023-06-26T20:43:51;22.10;94.70
45983;DHT22;31711;47.158;7.346;2023-06-26T20:46:18;22.10;94.50
45983;DHT22;31711;47.158;7.346;2023-06-26T20:48:45;22.00;94.70
45983;DHT22;31711;47.158;7.346;2023-06-26T20:51:12;22.00;94.90
45983;DHT22;31711;47.158;7.346;2023-06-26T20:53:38;21.90;95.10
45983;DHT22;31711;47.158;7.346;2023-06-26T20:56:05;22.00;95.00
45983;DHT22;31711;47.158;7.346;2023-06-26T20:58:30;21.90;94.80
45983;DHT22;31711;47.158;7.346;2023-06-26T21:00:56;21.90;95.00
45983;DHT22;31711;47.158;7.346;2023-06-26T21:03:22;21.80;95.10
45983;DHT22;31711;47.158;7.346;2023-06-26T21:05:48;21.90;95.10
45983;DHT22;31711;47.158;7.346;2023-06-26T21:08:14;21.90;95.00
45983;DHT22;31711;47.158;7.346;2023-06-26T21:10:40;21.90;95.00
45983;DHT22;31711;47.158;7.346;2023-06-26T21:13:06;21.80;95.00
45983;DHT22;31711;47.158;7.346;2023-06-26T21:15:32;21.80;95.20
45983;DHT22;31711;47.158;7.346;2023-06-26T21:17:58;21.80;95.20
45983;DHT22;31711;47.158;7.346;2023-06-26T21:20:24;21.70;95.20
45983;DHT22;31711;47.158;7.346;2023-06-26T21:22:50;21.70;95.30
45983;DHT22;31711;47.158;7.346;2023-06-26T21:25:16;21.70;95.30
45983;DHT22;31711;47.158;7.346;2023-06-26T21:27:42;21.70;95.30
45983;DHT22;31711;47.158;7.346;2023-06-26T21:30:08;21.60;95.40
45983;DHT22;31711;47.158;7.346;2023-06-26T21:32:34;21.60;95.60
45983;DHT22;31711;47.158;7.346;2023-06-26T21:35:00;21.60;95.80
45983;DHT22;31711;47.158;7.346;2023-06-26T21:37:26;21.50;95.80
45983;DHT22;31711;47.158;7.346;2023-06-26T21:39:52;21.50;95.70
45983;DHT22;31711;47.158;7.346;2023-06-26T21:42:18;21.40;95.60
45983;DHT22;31711;47.158;7.346;2023-06-26T21:44:44;21.40;95.70
45983;DHT22;31711;47.158;7.346;2023-06-26T21:47:10;21.40;95.70
45983;DHT22;31711;47.158;7.346;2023-06-26T21:49:38;21.40;95.70
45983;DHT22;31711;47.158;7.346;2023-06-26T21:52:05;21.30;95.80
45983;DHT22;31711;47.158;7.346;2023-06-26T21:54:31;21.40;95.60
45983;DHT22;31711;47.158;7.346;2023-06-26T21:56:57;21.30;95.40
45983;DHT22;31711;47.158;7.346;2023-06-26T21:59:25;21.30;95.30
45983;DHT22;31711;47.158;7.346;2023-06-26T22:01:51;21.30;95.80
45983;DHT22;31711;47.158;7.346;2023-06-26T22:04:17;21.30;95.50
45983;DHT22;31711;47.158;7.346;2023-06-26T22:06:42;21.30;95.60
45983;DHT22;31711;47.158;7.346;2023-06-26T22:09:08;21.20;95.80
45983;DHT22;31711;47.158;7.346;2023-06-26T22:11:34;21.10;95.60
45983;DHT22;31711;47.158;7.346;2023-06-26T22:14:00;21.00;95.80
45983;DHT22;31711;47.158;7.346;2023-06-26T22:16:26;21.10;95.60
45983;DHT22;31711;47.158;7.346;2023-06-26T22:18:52;21.10;96.00
45983;DHT22;31711;47.158;7.346;2023-06-26T22:21:18;21.10;95.70
45983;DHT22;31711;47.158;7.346;2023-06-26T22:23:45;21.10;96.10
45983;DHT22;31711;47.158;7.346;2023-06-26T22:26:12;21.10;96.20
45983;DHT22;31711;47.158;7.346;2023-06-26T22:28:38;21.10;95.40
45983;DHT22;31711;47.158;7.346;2023-06-26T22:31:04;21.10;95.50
45983;DHT22;31711;47.158;7.346;2023-06-26T22:33:30;21.10;95.40
45983;DHT22;31711;47.158;7.346;2023-06-26T22:35:56;21.00;95.20
45983;DHT22;31711;47.158;7.346;2023-06-26T22:38:22;21.00;94.90
45983;DHT22;31711;47.158;7.346;2023-06-26T22:40:48;21.00;95.00
45983;DHT22;31711;47.158;7.346;2023-06-26T22:43:14;21.00;94.90
45983;DHT22;31711;47.158;7.346;2023-06-26T22:45:40;21.00;95.10
45983;DHT22;31711;47.158;7.346;2023-06-26T22:48:06;20.90;94.40
45983;DHT22;31711;47.158;7.346;2023-06-26T22:50:32;20.90;94.40
45983;DHT22;31711;47.158;7.346;2023-06-26T22:52:58;20.80;94.40
45983;DHT22;31711;47.158;7.346;2023-06-26T22:55:25;20.80;94.20
45983;DHT22;31711;47.158;7.346;2023-06-26T22:57:51;20.70;94.00
45983;DHT22;31711;47.158;7.346;2023-06-26T23:00:17;20.70;94.30
45983;DHT22;31711;47.158;7.346;2023-06-26T23:02:44;20.70;94.30
45983;DHT22;31711;47.158;7.346;2023-06-26T23:05:10;20.70;94.40
45983;DHT22;31711;47.158;7.346;2023-06-26T23:07:37;20.70;94.40
45983;DHT22;31711;47.158;7.346;2023-06-26T23:10:04;20.60;94.80
45983;DHT22;31711;47.158;7.346;2023-06-26T23:12:30;20.70;95.20
45983;DHT22;31711;47.158;7.346;2023-06-26T23:14:57;20.70;94.30
45983;DHT22;31711;47.158;7.346;2023-06-26T23:17:23;20.60;94.60
45983;DHT22;31711;47.158;7.346;2023-06-26T23:19:49;20.50;94.50
45983;DHT22;31711;47.158;7.346;2023-06-26T23:22:15;20.50;94.60
45983;DHT22;31711;47.158;7.346;2023-06-26T23:24:46;20.40;94.60
45983;DHT22;31711;47.158;7.346;2023-06-26T23:27:13;20.40;94.40
45983;DHT22;31711;47.158;7.346;2023-06-26T23:29:40;20.30;94.80
45983;DHT22;31711;47.158;7.346;2023-06-26T23:32:07;20.30;94.90
45983;DHT22;31711;47.158;7.346;2023-06-26T23:34:35;20.30;94.80
45983;DHT22;31711;47.158;7.346;2023-06-26T23:37:08;20.30;95.10
45983;DHT22;31711;47.158;7.346;2023-06-26T23:39:35;20.20;94.80
45983;DHT22;31711;47.158;7.346;2023-06-26T23:42:08;20.20;94.90
45983;DHT22;31711;47.158;7.346;2023-06-26T23:44:35;20.20;94.90
45983;DHT22;31711;47.158;7.346;2023-06-26T23:47:04;20.20;94.80
45983;DHT22;31711;47.158;7.346;2023-06-26T23:49:31;20.20;95.10
45983;DHT22;31711;47.158;7.346;2023-06-26T23:51:58;20.20;94.90
45983;DHT22;31711;47.158;7.346;2023-06-26T23:54:24;20.10;95.00
45983;DHT22;31711;47.158;7.346;2023-06-26T23:56:50;20.10;94.90
45983;DHT22;31711;47.158;7.346;2023-06-26T23:59:17;20.00;95.10
